createdAt,value
2017-09-12T00:01:17.882Z,5.80
2017-09-12T00:03:45.281Z,12.33
2017-09-12T00:06:12.666Z,9.70
2017-09-12T00:08:39.987Z,14.70
2017-09-12T00:11:07.301Z,7.03
2017-09-12T00:13:34.976Z,11.37
2017-09-12T00:16:02.387Z,7.33
2017-09-12T00:18:29.663Z,8.57
2017-09-12T00:20:57.022Z,7.50
2017-09-12T00:23:24.331Z,11.60
2017-09-12T00:25:51.709Z,13.30
2017-09-12T00:28:19.039Z,8.90
2017-09-12T00:30:46.312Z,7.67
2017-09-12T00:33:13.637Z,12.33
2017-09-12T00:35:40.988Z,10.53
2017-09-12T00:38:08.267Z,11.00
2017-09-12T00:40:35.563Z,13.77
2017-09-12T00:43:03.102Z,9.83
2017-09-12T00:45:30.432Z,8.60
2017-09-12T00:47:57.754Z,10.93
2017-09-12T00:50:25.060Z,9.97
2017-09-12T00:52:52.390Z,18.13
2017-09-12T00:55:19.720Z,8.83
2017-09-12T00:57:47.067Z,11.27
2017-09-12T01:00:14.402Z,12.13
2017-09-12T01:02:41.690Z,20.80
2017-09-12T01:05:09.039Z,6.10
2017-09-12T01:07:36.331Z,10.90
2017-09-12T01:10:03.632Z,11.47
2017-09-12T01:12:30.948Z,12.50
2017-09-12T01:14:58.275Z,12.23
2017-09-12T01:17:25.619Z,18.57
2017-09-12T01:19:52.932Z,8.80
2017-09-12T01:22:20.231Z,11.50
2017-09-12T01:24:47.562Z,9.93
2017-09-12T01:27:14.875Z,7.57
2017-09-12T01:29:42.139Z,7.07
2017-09-12T01:32:09.512Z,8.60
2017-09-12T01:34:36.789Z,14.17
2017-09-12T01:37:04.140Z,12.23
2017-09-12T01:39:31.426Z,6.00
2017-09-12T01:41:58.707Z,12.97
2017-09-12T01:44:26.050Z,9.80
2017-09-12T01:46:53.364Z,12.90
2017-09-12T01:49:20.720Z,11.63
2017-09-12T01:51:48.142Z,11.40
2017-09-12T01:54:15.454Z,6.77
2017-09-12T01:56:42.753Z,13.43
2017-09-12T01:59:10.087Z,10.00
2017-09-12T02:01:37.402Z,8.40
2017-09-12T02:04:04.732Z,8.87
2017-09-12T02:06:32.019Z,11.40
2017-09-12T02:08:59.319Z,12.60
2017-09-12T02:11:26.672Z,5.90
2017-09-12T02:13:53.989Z,11.13
2017-09-12T02:16:21.363Z,10.30
2017-09-12T02:18:48.740Z,10.70
2017-09-12T02:21:16.064Z,12.13
2017-09-12T02:23:43.359Z,7.17
2017-09-12T02:26:10.640Z,8.53
2017-09-12T02:28:37.989Z,10.03
2017-09-12T02:31:05.273Z,10.73
2017-09-12T02:33:32.578Z,14.07
2017-09-12T02:35:59.923Z,10.53
2017-09-12T02:38:27.283Z,10.30
2017-09-12T02:40:54.591Z,7.40
2017-09-12T02:43:21.866Z,13.50
2017-09-12T02:45:49.135Z,5.93
2017-09-12T02:48:16.478Z,5.57
2017-09-12T02:50:43.758Z,14.17
2017-09-12T02:53:11.093Z,16.07
2017-09-12T02:55:38.437Z,8.80
2017-09-12T02:58:05.717Z,8.80
2017-09-12T03:00:33.076Z,12.77
2017-09-12T03:03:00.360Z,7.77
2017-09-12T03:05:27.658Z,12.40
2017-09-12T03:07:54.996Z,8.90
2017-09-12T03:10:22.368Z,8.57
2017-09-12T03:12:49.688Z,15.03
2017-09-12T03:15:16.998Z,10.50
2017-09-12T03:17:44.345Z,12.90
2017-09-12T03:20:11.709Z,11.40
2017-09-12T03:22:39.020Z,9.47
2017-09-12T03:25:06.319Z,16.83
2017-09-12T03:27:33.649Z,11.47
2017-09-12T03:30:00.993Z,11.60
2017-09-12T03:32:28.303Z,10.00
2017-09-12T03:34:55.638Z,9.40
2017-09-12T03:37:22.998Z,8.30
2017-09-12T03:39:50.268Z,10.23
2017-09-12T03:42:17.582Z,9.40
2017-09-12T03:44:44.918Z,11.77
2017-09-12T03:47:12.239Z,9.90
2017-09-12T03:49:39.646Z,8.00
2017-09-12T03:52:06.964Z,8.50
2017-09-12T03:54:34.316Z,9.30
2017-09-12T03:57:01.642Z,12.33
2017-09-12T03:59:28.984Z,9.07
2017-09-12T04:01:56.335Z,8.27
2017-09-12T04:04:23.630Z,12.97
2017-09-12T04:06:51.111Z,11.73
2017-09-12T04:09:18.390Z,14.43
2017-09-12T04:11:45.790Z,13.17
2017-09-12T04:14:13.111Z,6.33
2017-09-12T04:16:40.467Z,10.93
2017-09-12T04:19:07.819Z,14.43
2017-09-12T04:21:35.132Z,12.43
2017-09-12T04:24:02.438Z,7.80
2017-09-12T04:26:29.811Z,11.40
2017-09-12T04:28:57.105Z,12.57
2017-09-12T04:31:24.495Z,10.50
2017-09-12T04:33:51.849Z,6.63
2017-09-12T04:36:19.144Z,13.87
2017-09-12T04:38:46.543Z,10.63
2017-09-12T04:41:13.955Z,8.30
2017-09-12T04:43:41.292Z,12.50
2017-09-12T04:46:08.659Z,12.83
2017-09-12T04:48:36.039Z,10.33
2017-09-12T04:51:03.401Z,9.40
2017-09-12T04:53:30.766Z,9.70
2017-09-12T04:55:58.070Z,10.00
2017-09-12T04:58:25.440Z,19.20
2017-09-12T05:00:52.741Z,17.03
2017-09-12T05:03:20.043Z,13.63
2017-09-12T05:05:47.370Z,9.63
2017-09-12T05:08:14.659Z,13.17
2017-09-12T05:10:41.959Z,14.93
2017-09-12T05:13:09.266Z,7.90
2017-09-12T05:15:36.686Z,8.93
2017-09-12T05:18:03.986Z,12.40
2017-09-12T05:20:31.271Z,13.90
2017-09-12T05:22:58.564Z,8.47
2017-09-12T05:25:25.908Z,7.70
2017-09-12T05:27:53.219Z,13.77
2017-09-12T05:30:20.562Z,12.77
2017-09-12T05:32:47.863Z,10.50
2017-09-12T05:35:15.233Z,12.90
2017-09-12T05:37:42.543Z,7.83
2017-09-12T05:40:09.842Z,10.83
2017-09-12T05:42:37.170Z,11.03
2017-09-12T05:45:04.485Z,11.73
2017-09-12T05:47:31.822Z,12.60
2017-09-12T05:49:59.140Z,12.60
2017-09-12T05:52:26.467Z,13.20
2017-09-12T05:54:53.762Z,8.10
2017-09-12T05:57:21.095Z,10.80
2017-09-12T05:59:48.384Z,8.80
2017-09-12T06:02:15.689Z,10.33
2017-09-12T06:04:43.003Z,7.17
2017-09-12T06:07:11.094Z,7.70
2017-09-12T06:09:39.385Z,12.93
2017-09-12T06:12:06.671Z,9.53
2017-09-12T06:14:34.084Z,8.83
2017-09-12T06:17:01.419Z,9.50
2017-09-12T06:19:28.759Z,7.43
2017-09-12T06:21:56.051Z,9.20
2017-09-12T06:24:23.388Z,13.50
2017-09-12T06:29:24.323Z,11.13
2017-09-12T06:31:51.618Z,10.00
2017-09-12T06:34:18.887Z,10.87
2017-09-12T06:36:46.247Z,10.53
2017-09-12T06:39:13.595Z,12.10
2017-09-12T06:41:40.894Z,9.30
2017-09-12T06:44:08.197Z,6.93
2017-09-12T06:46:35.480Z,11.83
2017-09-12T06:49:02.808Z,7.90
2017-09-12T06:51:30.092Z,8.07
2017-09-12T06:53:57.423Z,9.30
2017-09-12T06:56:24.736Z,7.17
2017-09-12T06:58:52.038Z,12.10
2017-09-12T07:01:19.367Z,11.20
2017-09-12T07:03:46.716Z,11.80
2017-09-12T07:06:14.013Z,11.20
2017-09-12T07:08:41.316Z,11.10
2017-09-12T07:11:08.596Z,9.40
2017-09-12T07:13:35.927Z,8.20
2017-09-12T07:16:03.195Z,9.33
2017-09-12T07:18:30.515Z,14.20
2017-09-12T07:20:57.861Z,5.77
2017-09-12T07:23:25.203Z,9.53
2017-09-12T07:25:52.531Z,9.23
2017-09-12T07:28:19.795Z,10.17
2017-09-12T07:30:47.106Z,8.70
2017-09-12T07:33:14.583Z,14.60
2017-09-12T07:35:41.851Z,9.77
2017-09-12T07:38:09.135Z,13.70
2017-09-12T07:40:36.455Z,7.80
2017-09-12T07:43:03.763Z,15.47
2017-09-12T07:45:31.076Z,10.90
2017-09-12T07:47:58.395Z,7.40
2017-09-12T07:50:25.762Z,10.23
2017-09-12T07:52:53.087Z,8.67
2017-09-12T07:55:20.387Z,6.53
2017-09-12T07:57:47.679Z,8.90
2017-09-12T08:00:14.981Z,8.93
2017-09-12T08:02:42.317Z,8.53
2017-09-12T08:05:09.626Z,7.33
2017-09-12T08:07:36.949Z,9.57
2017-09-12T08:10:04.232Z,6.83
2017-09-12T08:12:31.545Z,12.37
2017-09-12T08:14:58.854Z,6.93
2017-09-12T08:17:26.116Z,5.70
2017-09-12T08:19:53.431Z,8.23
2017-09-12T08:22:20.698Z,8.83
2017-09-12T08:24:48.011Z,7.13
2017-09-12T08:27:15.286Z,8.50
2017-09-12T08:29:42.568Z,11.07
2017-09-12T08:32:09.884Z,7.60
2017-09-12T08:34:37.183Z,4.73
2017-09-12T08:37:04.501Z,4.63
2017-09-12T08:39:31.799Z,6.40
2017-09-12T08:41:59.148Z,7.60
2017-09-12T08:44:26.451Z,12.23
2017-09-12T08:46:53.814Z,8.73
2017-09-12T08:49:21.098Z,7.63
2017-09-12T08:51:48.453Z,5.10
2017-09-12T08:54:15.754Z,7.17
2017-09-12T08:56:43.071Z,9.07
2017-09-12T08:59:10.351Z,9.23
2017-09-12T09:01:37.625Z,6.10
2017-09-12T09:04:04.946Z,9.97
2017-09-12T09:06:32.216Z,3.80
2017-09-12T09:08:59.536Z,7.50
2017-09-12T09:11:26.847Z,9.37
2017-09-12T09:13:54.146Z,5.10
2017-09-12T09:16:21.490Z,7.90
2017-09-12T09:18:48.805Z,5.17
2017-09-12T09:21:16.069Z,8.53
2017-09-12T09:23:43.350Z,9.53
2017-09-12T09:26:10.668Z,4.67
2017-09-12T09:28:38.082Z,6.47
2017-09-12T09:31:05.415Z,5.77
2017-09-12T09:33:32.715Z,6.53
2017-09-12T09:36:00.019Z,9.23
2017-09-12T09:38:27.334Z,4.70
2017-09-12T09:40:54.645Z,7.27
2017-09-12T09:43:21.947Z,6.50
2017-09-12T09:45:49.223Z,4.27
2017-09-12T09:48:18.063Z,5.20
2017-09-12T09:50:45.373Z,4.07
2017-09-12T09:53:13.129Z,2.37
2017-09-12T09:55:41.014Z,4.13
2017-09-12T09:58:08.368Z,3.67
2017-09-12T10:00:35.650Z,2.23
2017-09-12T10:03:02.929Z,3.77
2017-09-12T10:05:30.286Z,5.80
2017-09-12T10:07:57.642Z,5.40
2017-09-12T10:10:24.946Z,2.93
2017-09-12T10:12:52.233Z,2.83
2017-09-12T10:15:19.555Z,4.73
2017-09-12T10:17:46.844Z,2.63
2017-09-12T10:20:14.164Z,4.63
2017-09-12T10:22:41.446Z,2.97
2017-09-12T10:25:08.731Z,2.80
2017-09-12T10:27:36.028Z,3.07
2017-09-12T10:30:03.325Z,2.70
2017-09-12T10:32:30.653Z,2.23
2017-09-12T10:34:57.982Z,6.03
2017-09-12T10:37:25.249Z,2.33
2017-09-12T10:39:52.527Z,2.60
2017-09-12T10:42:19.860Z,3.73
2017-09-12T10:44:47.133Z,5.40
2017-09-12T10:47:14.462Z,4.70
2017-09-12T10:49:41.731Z,2.37
2017-09-12T10:52:09.095Z,2.30
2017-09-12T10:54:36.406Z,2.80
2017-09-12T10:57:03.658Z,3.50
2017-09-12T10:59:30.975Z,4.43
2017-09-12T11:01:58.267Z,5.80
2017-09-12T11:04:25.639Z,4.83
2017-09-12T11:06:52.980Z,7.00
2017-09-12T11:09:20.279Z,2.00
2017-09-12T11:11:47.553Z,4.47
2017-09-12T11:14:14.866Z,3.23
2017-09-12T11:16:42.136Z,2.33
2017-09-12T11:19:09.455Z,2.70
2017-09-12T11:21:36.731Z,4.73
2017-09-12T11:24:03.995Z,3.83
2017-09-12T11:26:31.275Z,7.27
2017-09-12T11:28:58.551Z,4.60
2017-09-12T11:31:25.855Z,2.10
2017-09-12T11:33:53.128Z,2.73
2017-09-12T11:36:20.419Z,2.30
2017-09-12T11:38:47.691Z,3.63
2017-09-12T11:41:14.979Z,4.93
2017-09-12T11:43:42.251Z,2.90
2017-09-12T11:46:09.558Z,5.67
2017-09-12T11:48:36.851Z,8.10
2017-09-12T11:51:04.137Z,6.07
2017-09-12T11:53:31.415Z,7.40
2017-09-12T11:55:58.698Z,2.90
2017-09-12T11:58:25.964Z,4.60
2017-09-12T12:00:53.241Z,5.57
2017-09-12T12:03:20.516Z,6.87
2017-09-12T12:05:47.791Z,5.33
2017-09-12T12:08:15.055Z,4.50
2017-09-12T12:10:42.352Z,6.80
2017-09-12T12:13:09.610Z,2.67
2017-09-12T12:15:37.699Z,4.20
2017-09-12T12:18:05.048Z,4.40
2017-09-12T12:20:32.573Z,5.93
2017-09-12T12:23:00.083Z,2.40
2017-09-12T12:25:27.347Z,2.73
2017-09-12T12:27:54.636Z,8.13
2017-09-12T12:30:21.920Z,4.97
2017-09-12T12:32:49.215Z,4.07
2017-09-12T12:35:16.471Z,2.60
2017-09-12T12:37:43.749Z,5.10
2017-09-12T12:40:11.016Z,1.43
2017-09-12T12:42:38.295Z,3.70
2017-09-12T12:45:05.567Z,2.90
2017-09-12T12:47:32.843Z,4.03
2017-09-12T12:50:00.120Z,4.70
2017-09-12T12:52:27.403Z,3.67
2017-09-12T12:54:54.664Z,2.90
2017-09-12T12:57:21.948Z,3.00
2017-09-12T12:59:49.211Z,3.70
2017-09-12T13:02:16.498Z,3.63
2017-09-12T13:04:43.758Z,3.17
2017-09-12T13:07:11.043Z,2.73
2017-09-12T13:09:38.563Z,1.50
2017-09-12T13:12:05.844Z,3.30
2017-09-12T13:14:33.116Z,3.00
2017-09-12T13:17:00.400Z,4.07
2017-09-12T13:19:27.669Z,2.23
2017-09-12T13:21:54.973Z,5.43
2017-09-12T13:24:22.267Z,6.73
2017-09-12T13:26:49.528Z,6.30
2017-09-12T13:29:16.802Z,3.90
2017-09-12T13:31:44.062Z,2.57
2017-09-12T13:34:11.351Z,6.77
2017-09-12T13:36:38.675Z,3.57
2017-09-12T13:39:05.963Z,4.37
2017-09-12T13:41:33.247Z,7.60
2017-09-12T13:44:00.527Z,9.63
2017-09-12T13:46:27.790Z,8.70
2017-09-12T13:48:55.075Z,5.23
2017-09-12T13:51:22.547Z,4.37
2017-09-12T13:53:49.830Z,6.33
2017-09-12T13:56:17.105Z,3.07
2017-09-12T13:58:44.388Z,3.00
2017-09-12T14:01:11.670Z,6.23
2017-09-12T14:03:38.972Z,4.00
2017-09-12T14:06:06.250Z,2.27
2017-09-12T14:08:33.609Z,3.17
2017-09-12T14:11:00.846Z,3.00
2017-09-12T14:13:28.131Z,5.87
2017-09-12T14:15:55.402Z,1.93
2017-09-12T14:18:22.668Z,2.73
2017-09-12T14:20:49.957Z,2.43
2017-09-12T14:23:17.222Z,2.10
2017-09-12T14:25:44.639Z,3.77
2017-09-12T14:28:11.962Z,2.07
2017-09-12T14:30:39.283Z,3.03
2017-09-12T14:33:06.708Z,5.63
2017-09-12T14:35:34.019Z,2.30
2017-09-12T14:38:01.294Z,3.97
2017-09-12T14:40:28.585Z,3.87
2017-09-12T14:42:55.857Z,2.53
2017-09-12T14:45:23.147Z,1.80
2017-09-12T14:47:50.416Z,3.47
2017-09-12T14:50:17.695Z,2.43
2017-09-12T14:52:44.963Z,2.80
2017-09-12T14:55:12.248Z,4.03
2017-09-12T14:57:39.515Z,6.50
2017-09-12T15:00:06.829Z,1.80
2017-09-12T15:02:34.088Z,4.97
2017-09-12T15:05:01.385Z,3.50
2017-09-12T15:07:28.643Z,5.13
2017-09-12T15:09:55.935Z,4.27
2017-09-12T15:12:23.197Z,3.63
2017-09-12T15:14:50.490Z,3.13
2017-09-12T15:17:17.779Z,5.83
2017-09-12T15:19:45.043Z,3.27
2017-09-12T15:22:12.325Z,2.17
2017-09-12T15:24:39.590Z,3.13
2017-09-12T15:27:06.888Z,3.13
2017-09-12T15:29:34.152Z,3.80
2017-09-12T15:32:01.439Z,3.63
2017-09-12T15:34:28.715Z,8.03
2017-09-12T15:36:56.010Z,4.57
2017-09-12T15:39:23.315Z,2.93
2017-09-12T15:41:50.593Z,3.50
2017-09-12T15:44:17.867Z,6.03
2017-09-12T15:46:45.155Z,4.10
2017-09-12T15:49:12.423Z,2.83
2017-09-12T15:51:39.728Z,4.10
2017-09-12T15:54:07.021Z,2.47
2017-09-12T15:56:35.827Z,7.23
2017-09-12T15:59:03.490Z,1.90
2017-09-12T16:01:30.775Z,3.20
2017-09-12T16:03:58.038Z,3.30
2017-09-12T16:06:25.323Z,4.47
2017-09-12T16:08:52.596Z,5.10
2017-09-12T16:11:19.880Z,5.97
2017-09-12T16:13:47.158Z,5.53
2017-09-12T16:16:14.440Z,7.23
2017-09-12T16:18:41.754Z,3.60
2017-09-12T16:21:09.017Z,1.87
2017-09-12T16:23:36.311Z,3.27
2017-09-12T16:26:03.582Z,3.20
2017-09-12T16:28:30.885Z,7.97
2017-09-12T16:30:58.162Z,4.17
2017-09-12T16:33:25.450Z,3.47
2017-09-12T16:35:52.740Z,8.33
2017-09-12T16:38:20.017Z,3.93
2017-09-12T16:40:47.291Z,3.50
2017-09-12T16:43:14.622Z,1.40
2017-09-12T16:45:41.872Z,2.20
2017-09-12T16:48:09.180Z,3.70
2017-09-12T16:50:36.448Z,1.87
2017-09-12T16:53:03.749Z,2.40
2017-09-12T16:55:31.024Z,5.00
2017-09-12T16:57:58.313Z,3.40
2017-09-12T17:00:25.616Z,2.87
2017-09-12T17:02:52.914Z,2.27
2017-09-12T17:05:20.204Z,4.47
2017-09-12T17:07:47.498Z,2.60
2017-09-12T17:10:14.751Z,1.40
2017-09-12T17:12:42.284Z,2.30
2017-09-12T17:15:09.568Z,3.03
2017-09-12T17:17:36.857Z,2.70
2017-09-12T17:20:04.133Z,1.53
2017-09-12T17:22:31.418Z,1.33
2017-09-12T17:24:58.731Z,4.10
2017-09-12T17:27:26.023Z,4.97
2017-09-12T17:29:53.339Z,1.47
2017-09-12T17:32:20.609Z,1.30
2017-09-12T17:34:47.920Z,2.67
2017-09-12T17:37:15.199Z,1.30
2017-09-12T17:39:42.497Z,1.97
2017-09-12T17:42:09.757Z,4.00
2017-09-12T17:44:37.299Z,2.23
2017-09-12T17:47:04.695Z,2.20
2017-09-12T17:49:32.008Z,14.67
2017-09-12T17:52:00.851Z,5.50
2017-09-12T17:54:31.013Z,4.20
2017-09-12T17:56:58.443Z,2.40
2017-09-12T17:59:25.776Z,3.70
2017-09-12T18:01:53.055Z,7.00
2017-09-12T18:04:20.372Z,2.10
2017-09-12T18:06:47.689Z,8.80
2017-09-12T18:09:15.029Z,4.07
2017-09-12T18:11:42.291Z,4.47
2017-09-12T18:14:09.572Z,7.33
2017-09-12T18:16:36.881Z,4.43
2017-09-12T18:19:05.113Z,3.20
2017-09-12T18:21:32.469Z,4.23
2017-09-12T18:23:59.735Z,3.60
2017-09-12T18:26:27.010Z,5.63
2017-09-12T18:28:54.292Z,4.83
2017-09-12T18:31:21.669Z,2.77
2017-09-12T18:33:48.961Z,3.70
2017-09-12T18:36:16.267Z,3.60
2017-09-12T18:38:43.530Z,6.63
2017-09-12T18:41:10.850Z,5.50
2017-09-12T18:43:38.117Z,9.40
2017-09-12T18:46:05.415Z,5.10
2017-09-12T18:48:32.686Z,3.53
2017-09-12T18:50:59.998Z,5.13
2017-09-12T18:53:27.272Z,5.17
2017-09-12T18:55:54.566Z,4.17
2017-09-12T18:58:21.841Z,5.03
2017-09-12T19:00:49.184Z,3.30
2017-09-12T19:03:16.474Z,7.30
2017-09-12T19:05:43.778Z,2.80
2017-09-12T19:08:11.051Z,5.53
2017-09-12T19:10:38.349Z,2.00
2017-09-12T19:13:05.692Z,2.90
2017-09-12T19:15:32.979Z,5.90
2017-09-12T19:18:00.266Z,4.40
2017-09-12T19:20:27.549Z,3.33
2017-09-12T19:22:54.842Z,8.60
2017-09-12T19:25:22.149Z,5.57
2017-09-12T19:27:49.435Z,4.13
2017-09-12T19:30:16.731Z,4.90
2017-09-12T19:32:44.044Z,5.23
2017-09-12T19:35:11.315Z,5.37
2017-09-12T19:37:38.613Z,7.20
2017-09-12T19:40:05.892Z,5.20
2017-09-12T19:42:33.190Z,5.07
2017-09-12T19:45:00.501Z,4.73
2017-09-12T19:47:27.804Z,7.33
2017-09-12T19:49:55.090Z,3.47
2017-09-12T19:52:22.393Z,5.30
2017-09-12T19:54:49.662Z,5.57
2017-09-12T19:57:16.961Z,3.30
2017-09-12T19:59:44.246Z,3.53
2017-09-12T20:02:11.537Z,2.83
2017-09-12T20:04:38.811Z,4.30
2017-09-12T20:07:06.118Z,2.60
2017-09-12T20:09:33.416Z,6.73
2017-09-12T20:12:00.718Z,7.73
2017-09-12T20:14:28.010Z,5.30
2017-09-12T20:16:55.298Z,5.63
2017-09-12T20:19:22.584Z,5.90
2017-09-12T20:21:49.884Z,5.10
2017-09-12T20:24:17.185Z,3.40
2017-09-12T20:26:44.466Z,5.13
2017-09-12T20:29:11.771Z,4.03
2017-09-12T20:31:39.057Z,4.70
2017-09-12T20:34:06.351Z,4.10
2017-09-12T20:36:33.647Z,3.90
2017-09-12T20:39:00.972Z,1.77
2017-09-12T20:41:28.259Z,2.90
2017-09-12T20:43:55.583Z,3.63
2017-09-12T20:46:22.856Z,4.53
2017-09-12T20:48:50.146Z,3.10
2017-09-12T20:51:17.455Z,2.90
2017-09-12T20:53:44.755Z,6.27
2017-09-12T20:56:12.036Z,4.10
2017-09-12T20:58:39.334Z,5.73
2017-09-12T21:01:06.704Z,5.90
2017-09-12T21:03:34.003Z,3.73
2017-09-12T21:06:01.336Z,2.90
2017-09-12T21:08:28.611Z,2.13
2017-09-12T21:10:55.910Z,3.03
2017-09-12T21:13:23.238Z,5.00
2017-09-12T21:15:50.559Z,5.10
2017-09-12T21:18:17.838Z,6.43
2017-09-12T21:20:45.155Z,2.90
2017-09-12T21:23:12.445Z,3.37
2017-09-12T21:25:39.763Z,5.03
2017-09-12T21:28:07.039Z,3.17
2017-09-12T21:30:34.330Z,8.37
2017-09-12T21:33:01.622Z,5.00
2017-09-12T21:35:28.957Z,3.03
2017-09-12T21:37:56.213Z,4.27
2017-09-12T21:40:23.544Z,6.27
2017-09-12T21:42:50.871Z,6.60
2017-09-12T21:45:18.173Z,4.73
2017-09-12T21:47:45.459Z,4.27
2017-09-12T21:50:12.748Z,5.40
2017-09-12T21:52:40.044Z,4.97
2017-09-12T21:55:07.343Z,3.20
2017-09-12T21:57:34.649Z,5.93
2017-09-12T22:00:01.943Z,5.57
2017-09-12T22:02:29.240Z,5.83
2017-09-12T22:04:56.556Z,7.23
2017-09-12T22:07:23.849Z,3.07
2017-09-12T22:09:51.123Z,9.67
2017-09-12T22:14:52.074Z,5.47
2017-09-12T22:17:19.399Z,7.67
2017-09-12T22:19:46.682Z,12.63
2017-09-12T22:22:14.007Z,10.57
2017-09-12T22:24:41.294Z,3.40
2017-09-12T22:27:08.676Z,6.37
2017-09-12T22:29:36.078Z,5.67
2017-09-12T22:32:03.401Z,14.40
2017-09-12T22:34:30.680Z,9.77
2017-09-12T22:36:57.990Z,7.83
2017-09-12T22:39:25.284Z,7.20
2017-09-12T22:41:52.589Z,4.83
2017-09-12T22:44:19.887Z,5.63
2017-09-12T22:46:47.237Z,8.93
2017-09-12T22:49:14.553Z,6.83
2017-09-12T22:51:41.841Z,3.27
2017-09-12T22:54:09.178Z,7.13
2017-09-12T22:56:36.505Z,2.57
2017-09-12T22:59:03.798Z,13.40
2017-09-12T23:01:31.101Z,9.60
2017-09-12T23:03:58.384Z,4.77
2017-09-12T23:06:25.743Z,7.47
2017-09-12T23:08:53.042Z,4.70
2017-09-12T23:11:20.340Z,6.70
2017-09-12T23:13:47.895Z,6.43
2017-09-12T23:16:15.187Z,10.77
2017-09-12T23:18:42.561Z,6.43
2017-09-12T23:21:09.855Z,8.47
2017-09-12T23:23:37.160Z,10.80
2017-09-12T23:26:04.442Z,13.67
2017-09-12T23:28:31.756Z,6.23
2017-09-12T23:30:59.044Z,5.93
2017-09-12T23:33:26.358Z,8.20
2017-09-12T23:35:53.637Z,9.73
2017-09-12T23:38:20.971Z,13.67
2017-09-12T23:40:48.277Z,8.57
2017-09-12T23:43:15.592Z,8.77
2017-09-12T23:45:42.904Z,9.50
2017-09-12T23:48:10.245Z,8.07
2017-09-12T23:50:37.585Z,5.40
2017-09-12T23:53:04.890Z,9.23
2017-09-12T23:55:32.205Z,12.67
2017-09-12T23:57:59.585Z,12.43
